sensor_id;sensor_type;location;lat;lon;timestamp;P1;durP1;ratioP1;P2;durP2;ratioP2
32393;SDS011;18853;45.426;9.206;2023-08-06T00:00:20;1.30;;;0.70;;
32393;SDS011;18853;45.426;9.206;2023-08-06T00:02:46;1.60;;;0.80;;
32393;SDS011;18853;45.426;9.206;2023-08-06T00:05:11;2.03;;;0.60;;
32393;SDS011;18853;45.426;9.206;2023-08-06T00:07:37;0.82;;;0.55;;
32393;SDS011;18853;45.426;9.206;2023-08-06T00:10:03;1.00;;;0.50;;
32393;SDS011;18853;45.426;9.206;2023-08-06T00:12:29;1.83;;;0.70;;
32393;SDS011;18853;45.426;9.206;2023-08-06T00:14:55;1.63;;;0.65;;
32393;SDS011;18853;45.426;9.206;2023-08-06T00:17:20;0.77;;;0.50;;
32393;SDS011;18853;45.426;9.206;2023-08-06T00:19:46;1.63;;;0.60;;
32393;SDS011;18853;45.426;9.206;2023-08-06T00:22:11;2.42;;;0.85;;
32393;SDS011;18853;45.426;9.206;2023-08-06T00:24:37;0.88;;;0.43;;
32393;SDS011;18853;45.426;9.206;2023-08-06T00:27:03;1.17;;;0.60;;
32393;SDS011;18853;45.426;9.206;2023-08-06T00:29:29;1.23;;;0.50;;
32393;SDS011;18853;45.426;9.206;2023-08-06T00:31:54;1.13;;;0.68;;
32393;SDS011;18853;45.426;9.206;2023-08-06T00:34:20;1.67;;;0.40;;
32393;SDS011;18853;45.426;9.206;2023-08-06T00:36:46;0.90;;;0.43;;
32393;SDS011;18853;45.426;9.206;2023-08-06T00:39:11;0.95;;;0.50;;
32393;SDS011;18853;45.426;9.206;2023-08-06T00:41:37;1.02;;;0.50;;
32393;SDS011;18853;45.426;9.206;2023-08-06T00:44:03;1.50;;;0.50;;
32393;SDS011;18853;45.426;9.206;2023-08-06T00:46:29;0.90;;;0.50;;
32393;SDS011;18853;45.426;9.206;2023-08-06T00:48:55;2.08;;;0.50;;
32393;SDS011;18853;45.426;9.206;2023-08-06T00:51:22;0.60;;;0.38;;
32393;SDS011;18853;45.426;9.206;2023-08-06T00:53:49;2.42;;;0.70;;
32393;SDS011;18853;45.426;9.206;2023-08-06T00:56:15;0.93;;;0.45;;
32393;SDS011;18853;45.426;9.206;2023-08-06T00:58:41;1.23;;;0.40;;
32393;SDS011;18853;45.426;9.206;2023-08-06T01:01:07;1.50;;;0.45;;
32393;SDS011;18853;45.426;9.206;2023-08-06T01:03:33;1.08;;;0.50;;
32393;SDS011;18853;45.426;9.206;2023-08-06T01:05:59;1.35;;;0.50;;
32393;SDS011;18853;45.426;9.206;2023-08-06T01:13:45;2.88;;;0.60;;
32393;SDS011;18853;45.426;9.206;2023-08-06T01:16:14;1.73;;;0.50;;
32393;SDS011;18853;45.426;9.206;2023-08-06T01:18:42;1.00;;;0.50;;
32393;SDS011;18853;45.426;9.206;2023-08-06T01:21:14;4.20;;;1.45;;
32393;SDS011;18853;45.426;9.206;2023-08-06T01:23:41;1.10;;;0.60;;
32393;SDS011;18853;45.426;9.206;2023-08-06T01:31:50;1.17;;;0.50;;
32393;SDS011;18853;45.426;9.206;2023-08-06T01:34:20;1.70;;;0.73;;
32393;SDS011;18853;45.426;9.206;2023-08-06T01:36:47;1.77;;;0.55;;
32393;SDS011;18853;45.426;9.206;2023-08-06T01:39:13;1.92;;;0.50;;
32393;SDS011;18853;45.426;9.206;2023-08-06T01:41:39;2.03;;;0.80;;
32393;SDS011;18853;45.426;9.206;2023-08-06T01:44:04;3.28;;;0.55;;
32393;SDS011;18853;45.426;9.206;2023-08-06T01:46:30;2.33;;;0.60;;
32393;SDS011;18853;45.426;9.206;2023-08-06T01:48:56;2.53;;;0.63;;
32393;SDS011;18853;45.426;9.206;2023-08-06T01:51:21;1.38;;;0.50;;
32393;SDS011;18853;45.426;9.206;2023-08-06T01:53:47;2.35;;;0.82;;
32393;SDS011;18853;45.426;9.206;2023-08-06T01:56:13;2.92;;;0.70;;
32393;SDS011;18853;45.426;9.206;2023-08-06T01:58:38;2.03;;;0.70;;
32393;SDS011;18853;45.426;9.206;2023-08-06T02:01:04;1.20;;;0.70;;
32393;SDS011;18853;45.426;9.206;2023-08-06T02:03:30;1.85;;;0.95;;
32393;SDS011;18853;45.426;9.206;2023-08-06T02:05:55;3.03;;;0.93;;
32393;SDS011;18853;45.426;9.206;2023-08-06T02:08:21;2.70;;;0.50;;
32393;SDS011;18853;45.426;9.206;2023-08-06T02:10:47;2.78;;;0.50;;
32393;SDS011;18853;45.426;9.206;2023-08-06T02:13:13;1.77;;;0.60;;
32393;SDS011;18853;45.426;9.206;2023-08-06T02:15:42;1.63;;;0.73;;
32393;SDS011;18853;45.426;9.206;2023-08-06T02:18:08;4.07;;;0.70;;
32393;SDS011;18853;45.426;9.206;2023-08-06T02:20:34;1.10;;;0.60;;
32393;SDS011;18853;45.426;9.206;2023-08-06T02:23:00;1.40;;;0.63;;
32393;SDS011;18853;45.426;9.206;2023-08-06T02:25:25;1.65;;;0.60;;
32393;SDS011;18853;45.426;9.206;2023-08-06T02:27:51;1.88;;;0.73;;
32393;SDS011;18853;45.426;9.206;2023-08-06T02:30:17;1.45;;;0.70;;
32393;SDS011;18853;45.426;9.206;2023-08-06T02:32:42;1.67;;;0.55;;
32393;SDS011;18853;45.426;9.206;2023-08-06T02:35:08;2.00;;;1.00;;
32393;SDS011;18853;45.426;9.206;2023-08-06T02:37:34;3.00;;;0.88;;
32393;SDS011;18853;45.426;9.206;2023-08-06T02:40:00;1.40;;;0.70;;
32393;SDS011;18853;45.426;9.206;2023-08-06T02:42:25;1.90;;;0.80;;
32393;SDS011;18853;45.426;9.206;2023-08-06T02:44:52;1.95;;;0.77;;
32393;SDS011;18853;45.426;9.206;2023-08-06T02:47:20;2.15;;;0.80;;
32393;SDS011;18853;45.426;9.206;2023-08-06T02:49:46;1.42;;;0.70;;
32393;SDS011;18853;45.426;9.206;2023-08-06T02:52:11;1.02;;;0.50;;
32393;SDS011;18853;45.426;9.206;2023-08-06T02:54:37;2.50;;;0.90;;
32393;SDS011;18853;45.426;9.206;2023-08-06T02:57:03;2.20;;;0.88;;
32393;SDS011;18853;45.426;9.206;2023-08-06T02:59:30;2.92;;;0.93;;
32393;SDS011;18853;45.426;9.206;2023-08-06T03:01:56;1.95;;;0.80;;
32393;SDS011;18853;45.426;9.206;2023-08-06T03:04:22;1.35;;;0.70;;
32393;SDS011;18853;45.426;9.206;2023-08-06T03:06:49;2.20;;;0.70;;
32393;SDS011;18853;45.426;9.206;2023-08-06T03:09:16;4.40;;;0.80;;
32393;SDS011;18853;45.426;9.206;2023-08-06T03:11:42;1.50;;;0.60;;
32393;SDS011;18853;45.426;9.206;2023-08-06T03:14:07;3.03;;;0.90;;
32393;SDS011;18853;45.426;9.206;2023-08-06T03:16:33;1.52;;;0.70;;
32393;SDS011;18853;45.426;9.206;2023-08-06T03:18:59;2.03;;;0.77;;
32393;SDS011;18853;45.426;9.206;2023-08-06T03:21:25;2.40;;;0.82;;
32393;SDS011;18853;45.426;9.206;2023-08-06T03:23:50;2.72;;;0.85;;
32393;SDS011;18853;45.426;9.206;2023-08-06T03:26:16;1.25;;;0.65;;
32393;SDS011;18853;45.426;9.206;2023-08-06T03:28:42;2.60;;;0.80;;
32393;SDS011;18853;45.426;9.206;2023-08-06T03:31:07;2.72;;;1.08;;
32393;SDS011;18853;45.426;9.206;2023-08-06T03:33:33;2.05;;;0.80;;
32393;SDS011;18853;45.426;9.206;2023-08-06T03:35:59;1.42;;;0.77;;
32393;SDS011;18853;45.426;9.206;2023-08-06T03:38:24;2.25;;;1.05;;
32393;SDS011;18853;45.426;9.206;2023-08-06T03:40:50;2.25;;;1.00;;
32393;SDS011;18853;45.426;9.206;2023-08-06T03:43:16;2.75;;;1.05;;
32393;SDS011;18853;45.426;9.206;2023-08-06T03:45:42;2.50;;;1.10;;
32393;SDS011;18853;45.426;9.206;2023-08-06T03:48:08;2.42;;;0.93;;
32393;SDS011;18853;45.426;9.206;2023-08-06T03:50:33;2.65;;;1.13;;
32393;SDS011;18853;45.426;9.206;2023-08-06T03:52:59;2.78;;;1.20;;
32393;SDS011;18853;45.426;9.206;2023-08-06T03:55:25;2.90;;;1.10;;
32393;SDS011;18853;45.426;9.206;2023-08-06T03:57:50;2.38;;;1.10;;
32393;SDS011;18853;45.426;9.206;2023-08-06T04:00:16;2.85;;;1.10;;
32393;SDS011;18853;45.426;9.206;2023-08-06T04:02:42;2.03;;;0.90;;
32393;SDS011;18853;45.426;9.206;2023-08-06T04:05:08;2.60;;;1.20;;
32393;SDS011;18853;45.426;9.206;2023-08-06T04:07:33;3.75;;;1.17;;
32393;SDS011;18853;45.426;9.206;2023-08-06T04:10:00;2.15;;;1.13;;
32393;SDS011;18853;45.426;9.206;2023-08-06T04:12:28;3.05;;;1.30;;
32393;SDS011;18853;45.426;9.206;2023-08-06T04:14:54;4.55;;;1.20;;
32393;SDS011;18853;45.426;9.206;2023-08-06T04:17:20;2.13;;;1.10;;
32393;SDS011;18853;45.426;9.206;2023-08-06T04:19:53;5.18;;;1.25;;
32393;SDS011;18853;45.426;9.206;2023-08-06T04:22:20;3.40;;;1.42;;
32393;SDS011;18853;45.426;9.206;2023-08-06T04:24:46;7.78;;;1.80;;
32393;SDS011;18853;45.426;9.206;2023-08-06T04:27:12;4.03;;;1.50;;
32393;SDS011;18853;45.426;9.206;2023-08-06T04:29:39;4.13;;;1.63;;
32393;SDS011;18853;45.426;9.206;2023-08-06T04:32:06;2.05;;;1.20;;
32393;SDS011;18853;45.426;9.206;2023-08-06T04:34:34;3.15;;;1.92;;
32393;SDS011;18853;45.426;9.206;2023-08-06T04:37:00;3.25;;;1.88;;
32393;SDS011;18853;45.426;9.206;2023-08-06T04:39:26;3.85;;;1.77;;
32393;SDS011;18853;45.426;9.206;2023-08-06T04:41:52;4.15;;;2.00;;
32393;SDS011;18853;45.426;9.206;2023-08-06T04:44:18;4.05;;;1.92;;
32393;SDS011;18853;45.426;9.206;2023-08-06T04:46:44;3.45;;;1.77;;
32393;SDS011;18853;45.426;9.206;2023-08-06T04:49:09;5.95;;;2.05;;
32393;SDS011;18853;45.426;9.206;2023-08-06T04:51:35;3.65;;;1.95;;
32393;SDS011;18853;45.426;9.206;2023-08-06T04:54:01;5.78;;;2.17;;
32393;SDS011;18853;45.426;9.206;2023-08-06T04:56:26;3.40;;;2.08;;
32393;SDS011;18853;45.426;9.206;2023-08-06T04:58:52;4.05;;;2.05;;
32393;SDS011;18853;45.426;9.206;2023-08-06T05:01:18;4.55;;;1.95;;
32393;SDS011;18853;45.426;9.206;2023-08-06T05:03:44;3.85;;;2.00;;
32393;SDS011;18853;45.426;9.206;2023-08-06T05:06:09;4.60;;;2.65;;
32393;SDS011;18853;45.426;9.206;2023-08-06T05:08:35;3.88;;;2.40;;
32393;SDS011;18853;45.426;9.206;2023-08-06T05:11:01;5.30;;;2.00;;
32393;SDS011;18853;45.426;9.206;2023-08-06T05:13:27;4.47;;;2.28;;
32393;SDS011;18853;45.426;9.206;2023-08-06T05:15:53;6.28;;;2.30;;
32393;SDS011;18853;45.426;9.206;2023-08-06T05:18:19;4.55;;;2.33;;
32393;SDS011;18853;45.426;9.206;2023-08-06T05:20:45;3.53;;;2.20;;
32393;SDS011;18853;45.426;9.206;2023-08-06T05:23:10;3.22;;;2.05;;
32393;SDS011;18853;45.426;9.206;2023-08-06T05:25:37;4.00;;;2.53;;
32393;SDS011;18853;45.426;9.206;2023-08-06T05:28:03;6.03;;;3.00;;
32393;SDS011;18853;45.426;9.206;2023-08-06T05:30:29;5.88;;;2.85;;
32393;SDS011;18853;45.426;9.206;2023-08-06T05:32:55;5.95;;;2.38;;
32393;SDS011;18853;45.426;9.206;2023-08-06T05:35:22;4.50;;;2.90;;
32393;SDS011;18853;45.426;9.206;2023-08-06T05:37:48;3.92;;;2.63;;
32393;SDS011;18853;45.426;9.206;2023-08-06T05:40:15;5.38;;;2.80;;
32393;SDS011;18853;45.426;9.206;2023-08-06T05:42:41;5.20;;;2.38;;
32393;SDS011;18853;45.426;9.206;2023-08-06T05:45:07;4.90;;;2.65;;
32393;SDS011;18853;45.426;9.206;2023-08-06T05:47:33;4.93;;;3.10;;
32393;SDS011;18853;45.426;9.206;2023-08-06T05:49:59;4.35;;;2.75;;
32393;SDS011;18853;45.426;9.206;2023-08-06T05:52:24;4.28;;;2.58;;
32393;SDS011;18853;45.426;9.206;2023-08-06T05:54:50;4.97;;;2.70;;
32393;SDS011;18853;45.426;9.206;2023-08-06T05:57:16;5.32;;;2.55;;
32393;SDS011;18853;45.426;9.206;2023-08-06T05:59:42;4.13;;;2.88;;
32393;SDS011;18853;45.426;9.206;2023-08-06T06:02:08;7.53;;;2.95;;
32393;SDS011;18853;45.426;9.206;2023-08-06T06:04:34;4.88;;;2.92;;
32393;SDS011;18853;45.426;9.206;2023-08-06T06:06:59;3.55;;;2.58;;
32393;SDS011;18853;45.426;9.206;2023-08-06T06:09:25;6.07;;;3.10;;
32393;SDS011;18853;45.426;9.206;2023-08-06T06:11:51;5.43;;;2.88;;
32393;SDS011;18853;45.426;9.206;2023-08-06T06:14:19;5.78;;;2.97;;
32393;SDS011;18853;45.426;9.206;2023-08-06T06:16:45;3.95;;;2.70;;
32393;SDS011;18853;45.426;9.206;2023-08-06T06:19:11;4.78;;;2.58;;
32393;SDS011;18853;45.426;9.206;2023-08-06T06:21:37;5.65;;;2.70;;
32393;SDS011;18853;45.426;9.206;2023-08-06T06:24:04;6.07;;;2.70;;
32393;SDS011;18853;45.426;9.206;2023-08-06T06:26:30;3.20;;;2.28;;
32393;SDS011;18853;45.426;9.206;2023-08-06T06:28:57;3.78;;;2.70;;
32393;SDS011;18853;45.426;9.206;2023-08-06T06:31:23;4.75;;;2.20;;
32393;SDS011;18853;45.426;9.206;2023-08-06T06:33:49;4.53;;;2.45;;
32393;SDS011;18853;45.426;9.206;2023-08-06T06:36:14;3.90;;;2.00;;
32393;SDS011;18853;45.426;9.206;2023-08-06T06:38:40;3.17;;;1.98;;
32393;SDS011;18853;45.426;9.206;2023-08-06T06:41:06;3.70;;;2.17;;
32393;SDS011;18853;45.426;9.206;2023-08-06T06:43:31;3.58;;;2.00;;
32393;SDS011;18853;45.426;9.206;2023-08-06T06:45:58;3.65;;;2.05;;
32393;SDS011;18853;45.426;9.206;2023-08-06T06:48:28;3.90;;;2.20;;
32393;SDS011;18853;45.426;9.206;2023-08-06T06:50:56;3.33;;;1.75;;
32393;SDS011;18853;45.426;9.206;2023-08-06T06:53:22;4.65;;;2.20;;
32393;SDS011;18853;45.426;9.206;2023-08-06T06:55:53;5.15;;;2.05;;
32393;SDS011;18853;45.426;9.206;2023-08-06T06:58:26;3.55;;;1.92;;
32393;SDS011;18853;45.426;9.206;2023-08-06T07:00:51;4.07;;;1.92;;
32393;SDS011;18853;45.426;9.206;2023-08-06T07:03:17;4.05;;;2.10;;
32393;SDS011;18853;45.426;9.206;2023-08-06T07:05:44;4.05;;;1.90;;
32393;SDS011;18853;45.426;9.206;2023-08-06T07:08:10;6.10;;;2.10;;
32393;SDS011;18853;45.426;9.206;2023-08-06T07:10:36;3.63;;;2.08;;
32393;SDS011;18853;45.426;9.206;2023-08-06T07:13:02;3.55;;;1.83;;
32393;SDS011;18853;45.426;9.206;2023-08-06T07:15:28;3.63;;;2.00;;
32393;SDS011;18853;45.426;9.206;2023-08-06T07:17:54;3.60;;;1.80;;
32393;SDS011;18853;45.426;9.206;2023-08-06T07:20:20;3.47;;;1.92;;
32393;SDS011;18853;45.426;9.206;2023-08-06T07:22:45;2.95;;;1.63;;
32393;SDS011;18853;45.426;9.206;2023-08-06T07:25:11;3.80;;;1.70;;
32393;SDS011;18853;45.426;9.206;2023-08-06T07:27:37;3.55;;;1.60;;
32393;SDS011;18853;45.426;9.206;2023-08-06T07:30:02;2.35;;;1.40;;
32393;SDS011;18853;45.426;9.206;2023-08-06T07:32:30;2.58;;;1.40;;
32393;SDS011;18853;45.426;9.206;2023-08-06T07:34:56;2.88;;;1.10;;
32393;SDS011;18853;45.426;9.206;2023-08-06T07:37:25;3.92;;;1.50;;
32393;SDS011;18853;45.426;9.206;2023-08-06T07:39:54;2.53;;;1.58;;
32393;SDS011;18853;45.426;9.206;2023-08-06T07:42:20;1.98;;;1.02;;
32393;SDS011;18853;45.426;9.206;2023-08-06T07:44:51;3.50;;;1.33;;
32393;SDS011;18853;45.426;9.206;2023-08-06T07:47:17;3.17;;;1.42;;
32393;SDS011;18853;45.426;9.206;2023-08-06T07:49:43;1.92;;;1.25;;
32393;SDS011;18853;45.426;9.206;2023-08-06T07:52:09;3.22;;;1.52;;
32393;SDS011;18853;45.426;9.206;2023-08-06T07:54:36;4.28;;;1.30;;
32393;SDS011;18853;45.426;9.206;2023-08-06T07:57:01;2.53;;;1.40;;
32393;SDS011;18853;45.426;9.206;2023-08-06T07:59:27;2.53;;;1.20;;
32393;SDS011;18853;45.426;9.206;2023-08-06T08:01:53;3.17;;;1.30;;
32393;SDS011;18853;45.426;9.206;2023-08-06T08:04:18;3.45;;;1.67;;
32393;SDS011;18853;45.426;9.206;2023-08-06T08:06:44;2.88;;;1.40;;
32393;SDS011;18853;45.426;9.206;2023-08-06T08:09:10;3.25;;;1.38;;
32393;SDS011;18853;45.426;9.206;2023-08-06T08:11:35;3.05;;;1.15;;
32393;SDS011;18853;45.426;9.206;2023-08-06T08:14:01;3.10;;;1.20;;
32393;SDS011;18853;45.426;9.206;2023-08-06T08:16:27;4.28;;;1.25;;
32393;SDS011;18853;45.426;9.206;2023-08-06T08:18:53;2.63;;;1.23;;
32393;SDS011;18853;45.426;9.206;2023-08-06T08:21:19;1.73;;;1.00;;
32393;SDS011;18853;45.426;9.206;2023-08-06T08:23:44;2.83;;;1.13;;
32393;SDS011;18853;45.426;9.206;2023-08-06T08:26:10;1.95;;;0.85;;
32393;SDS011;18853;45.426;9.206;2023-08-06T08:28:35;1.80;;;1.02;;
32393;SDS011;18853;45.426;9.206;2023-08-06T08:31:01;2.15;;;0.90;;
32393;SDS011;18853;45.426;9.206;2023-08-06T08:33:27;2.28;;;1.05;;
32393;SDS011;18853;45.426;9.206;2023-08-06T08:35:52;3.00;;;1.20;;
32393;SDS011;18853;45.426;9.206;2023-08-06T08:38:18;2.95;;;1.33;;
32393;SDS011;18853;45.426;9.206;2023-08-06T08:40:46;1.77;;;1.02;;
32393;SDS011;18853;45.426;9.206;2023-08-06T08:43:16;2.85;;;1.00;;
32393;SDS011;18853;45.426;9.206;2023-08-06T08:45:50;1.67;;;0.93;;
32393;SDS011;18853;45.426;9.206;2023-08-06T08:48:17;2.55;;;1.00;;
32393;SDS011;18853;45.426;9.206;2023-08-06T08:50:46;2.45;;;0.93;;
32393;SDS011;18853;45.426;9.206;2023-08-06T08:53:14;1.83;;;1.13;;
32393;SDS011;18853;45.426;9.206;2023-08-06T08:55:41;2.03;;;0.98;;
32393;SDS011;18853;45.426;9.206;2023-08-06T08:58:09;1.73;;;0.90;;
32393;SDS011;18853;45.426;9.206;2023-08-06T09:00:35;2.70;;;1.20;;
32393;SDS011;18853;45.426;9.206;2023-08-06T09:03:01;1.85;;;0.90;;
32393;SDS011;18853;45.426;9.206;2023-08-06T09:05:31;2.25;;;1.00;;
32393;SDS011;18853;45.426;9.206;2023-08-06T09:08:00;1.48;;;0.98;;
32393;SDS011;18853;45.426;9.206;2023-08-06T09:10:28;2.75;;;0.90;;
32393;SDS011;18853;45.426;9.206;2023-08-06T09:12:55;1.60;;;0.90;;
32393;SDS011;18853;45.426;9.206;2023-08-06T09:15:25;2.75;;;0.90;;
32393;SDS011;18853;45.426;9.206;2023-08-06T09:17:51;2.10;;;1.00;;
32393;SDS011;18853;45.426;9.206;2023-08-06T09:20:18;2.72;;;0.82;;
32393;SDS011;18853;45.426;9.206;2023-08-06T09:22:43;3.72;;;0.82;;
32393;SDS011;18853;45.426;9.206;2023-08-06T09:25:10;2.28;;;1.23;;
32393;SDS011;18853;45.426;9.206;2023-08-06T09:27:38;1.42;;;0.70;;
32393;SDS011;18853;45.426;9.206;2023-08-06T09:30:05;3.20;;;0.90;;
32393;SDS011;18853;45.426;9.206;2023-08-06T09:32:45;2.03;;;0.95;;
32393;SDS011;18853;45.426;9.206;2023-08-06T09:35:15;1.58;;;0.88;;
32393;SDS011;18853;45.426;9.206;2023-08-06T09:37:42;2.33;;;1.10;;
32393;SDS011;18853;45.426;9.206;2023-08-06T09:40:27;1.77;;;1.00;;
32393;SDS011;18853;45.426;9.206;2023-08-06T09:42:57;8.73;;;1.33;;
32393;SDS011;18853;45.426;9.206;2023-08-06T09:45:23;1.65;;;0.90;;
32393;SDS011;18853;45.426;9.206;2023-08-06T09:47:58;1.27;;;0.75;;
32393;SDS011;18853;45.426;9.206;2023-08-06T09:50:28;3.08;;;1.10;;
32393;SDS011;18853;45.426;9.206;2023-08-06T09:52:58;2.30;;;1.00;;
32393;SDS011;18853;45.426;9.206;2023-08-06T09:55:25;1.80;;;0.90;;
32393;SDS011;18853;45.426;9.206;2023-08-06T09:57:51;2.45;;;1.02;;
32393;SDS011;18853;45.426;9.206;2023-08-06T10:00:17;2.20;;;0.90;;
32393;SDS011;18853;45.426;9.206;2023-08-06T10:02:43;1.23;;;0.63;;
32393;SDS011;18853;45.426;9.206;2023-08-06T10:05:10;1.38;;;0.70;;
32393;SDS011;18853;45.426;9.206;2023-08-06T10:07:36;2.03;;;0.70;;
32393;SDS011;18853;45.426;9.206;2023-08-06T10:10:04;1.48;;;0.63;;
32393;SDS011;18853;45.426;9.206;2023-08-06T10:12:34;1.67;;;0.88;;
32393;SDS011;18853;45.426;9.206;2023-08-06T10:15:13;1.92;;;0.98;;
32393;SDS011;18853;45.426;9.206;2023-08-06T10:17:43;1.83;;;0.80;;
32393;SDS011;18853;45.426;9.206;2023-08-06T10:20:11;3.55;;;1.02;;
32393;SDS011;18853;45.426;9.206;2023-08-06T10:22:41;1.77;;;0.90;;
32393;SDS011;18853;45.426;9.206;2023-08-06T10:25:08;3.03;;;1.05;;
32393;SDS011;18853;45.426;9.206;2023-08-06T10:27:35;1.75;;;0.90;;
32393;SDS011;18853;45.426;9.206;2023-08-06T10:30:23;2.63;;;1.00;;
32393;SDS011;18853;45.426;9.206;2023-08-06T10:32:55;1.42;;;0.80;;
32393;SDS011;18853;45.426;9.206;2023-08-06T10:35:32;1.67;;;0.70;;
32393;SDS011;18853;45.426;9.206;2023-08-06T10:38:13;2.72;;;1.00;;
32393;SDS011;18853;45.426;9.206;2023-08-06T10:40:52;2.05;;;0.80;;
32393;SDS011;18853;45.426;9.206;2023-08-06T10:46:01;2.42;;;0.73;;
32393;SDS011;18853;45.426;9.206;2023-08-06T10:48:29;1.20;;;0.70;;
32393;SDS011;18853;45.426;9.206;2023-08-06T10:50:56;1.30;;;0.63;;
32393;SDS011;18853;45.426;9.206;2023-08-06T10:53:22;1.27;;;0.77;;
32393;SDS011;18853;45.426;9.206;2023-08-06T10:55:48;1.67;;;0.85;;
32393;SDS011;18853;45.426;9.206;2023-08-06T10:58:16;3.45;;;0.80;;
32393;SDS011;18853;45.426;9.206;2023-08-06T11:00:42;1.98;;;0.80;;
32393;SDS011;18853;45.426;9.206;2023-08-06T11:03:08;3.10;;;0.70;;
32393;SDS011;18853;45.426;9.206;2023-08-06T11:05:34;1.50;;;0.80;;
32393;SDS011;18853;45.426;9.206;2023-08-06T11:08:01;1.77;;;0.90;;
32393;SDS011;18853;45.426;9.206;2023-08-06T11:10:27;1.70;;;1.00;;
32393;SDS011;18853;45.426;9.206;2023-08-06T11:12:53;2.05;;;1.02;;
32393;SDS011;18853;45.426;9.206;2023-08-06T11:15:20;1.80;;;0.93;;
32393;SDS011;18853;45.426;9.206;2023-08-06T11:17:46;2.38;;;1.00;;
32393;SDS011;18853;45.426;9.206;2023-08-06T11:20:12;1.60;;;0.73;;
32393;SDS011;18853;45.426;9.206;2023-08-06T11:22:38;2.03;;;0.70;;
32393;SDS011;18853;45.426;9.206;2023-08-06T11:25:05;1.70;;;0.80;;
32393;SDS011;18853;45.426;9.206;2023-08-06T11:27:31;1.60;;;0.70;;
32393;SDS011;18853;45.426;9.206;2023-08-06T11:29:57;2.38;;;0.90;;
32393;SDS011;18853;45.426;9.206;2023-08-06T11:32:23;1.65;;;0.93;;
32393;SDS011;18853;45.426;9.206;2023-08-06T11:34:49;1.27;;;0.80;;
32393;SDS011;18853;45.426;9.206;2023-08-06T11:37:15;1.38;;;0.80;;
32393;SDS011;18853;45.426;9.206;2023-08-06T11:39:45;1.85;;;0.82;;
32393;SDS011;18853;45.426;9.206;2023-08-06T11:42:13;0.98;;;0.68;;
32393;SDS011;18853;45.426;9.206;2023-08-06T11:44:40;1.50;;;0.73;;
32393;SDS011;18853;45.426;9.206;2023-08-06T11:47:12;1.73;;;0.90;;
32393;SDS011;18853;45.426;9.206;2023-08-06T11:49:48;1.20;;;0.60;;
32393;SDS011;18853;45.426;9.206;2023-08-06T11:52:15;1.20;;;0.70;;
32393;SDS011;18853;45.426;9.206;2023-08-06T11:54:43;1.75;;;0.70;;
32393;SDS011;18853;45.426;9.206;2023-08-06T11:57:09;2.08;;;0.70;;
32393;SDS011;18853;45.426;9.206;2023-08-06T11:59:36;2.38;;;0.70;;
32393;SDS011;18853;45.426;9.206;2023-08-06T12:02:04;1.83;;;0.80;;
32393;SDS011;18853;45.426;9.206;2023-08-06T12:04:31;1.65;;;0.80;;
32393;SDS011;18853;45.426;9.206;2023-08-06T12:07:06;1.67;;;0.65;;
32393;SDS011;18853;45.426;9.206;2023-08-06T12:09:35;1.55;;;0.70;;
32393;SDS011;18853;45.426;9.206;2023-08-06T12:12:01;1.10;;;0.57;;
32393;SDS011;18853;45.426;9.206;2023-08-06T12:14:27;2.75;;;0.65;;
32393;SDS011;18853;45.426;9.206;2023-08-06T12:16:52;2.75;;;0.98;;
32393;SDS011;18853;45.426;9.206;2023-08-06T12:19:18;1.42;;;0.77;;
32393;SDS011;18853;45.426;9.206;2023-08-06T12:21:43;1.45;;;0.80;;
32393;SDS011;18853;45.426;9.206;2023-08-06T12:24:09;1.63;;;0.80;;
32393;SDS011;18853;45.426;9.206;2023-08-06T12:26:35;1.20;;;0.60;;
32393;SDS011;18853;45.426;9.206;2023-08-06T12:29:01;0.70;;;0.45;;
32393;SDS011;18853;45.426;9.206;2023-08-06T12:31:26;2.15;;;0.70;;
32393;SDS011;18853;45.426;9.206;2023-08-06T12:33:52;1.50;;;0.60;;
32393;SDS011;18853;45.426;9.206;2023-08-06T12:36:18;2.85;;;0.60;;
32393;SDS011;18853;45.426;9.206;2023-08-06T12:38:44;1.33;;;0.70;;
32393;SDS011;18853;45.426;9.206;2023-08-06T12:41:09;1.15;;;0.60;;
32393;SDS011;18853;45.426;9.206;2023-08-06T12:43:35;1.27;;;0.50;;
32393;SDS011;18853;45.426;9.206;2023-08-06T12:46:00;0.60;;;0.40;;
32393;SDS011;18853;45.426;9.206;2023-08-06T12:48:26;2.85;;;0.70;;
32393;SDS011;18853;45.426;9.206;2023-08-06T12:50:52;2.50;;;0.65;;
32393;SDS011;18853;45.426;9.206;2023-08-06T12:53:17;3.10;;;0.85;;
32393;SDS011;18853;45.426;9.206;2023-08-06T12:55:46;1.67;;;0.70;;
32393;SDS011;18853;45.426;9.206;2023-08-06T12:58:11;2.80;;;0.60;;
32393;SDS011;18853;45.426;9.206;2023-08-06T13:00:37;1.48;;;0.70;;
32393;SDS011;18853;45.426;9.206;2023-08-06T13:03:02;1.55;;;0.70;;
32393;SDS011;18853;45.426;9.206;2023-08-06T13:05:28;1.75;;;0.80;;
32393;SDS011;18853;45.426;9.206;2023-08-06T13:07:54;1.55;;;0.60;;
32393;SDS011;18853;45.426;9.206;2023-08-06T13:10:19;1.55;;;0.70;;
32393;SDS011;18853;45.426;9.206;2023-08-06T13:12:46;1.30;;;0.60;;
32393;SDS011;18853;45.426;9.206;2023-08-06T13:15:11;1.48;;;0.52;;
32393;SDS011;18853;45.426;9.206;2023-08-06T13:17:39;1.10;;;0.70;;
32393;SDS011;18853;45.426;9.206;2023-08-06T13:20:05;1.25;;;0.52;;
32393;SDS011;18853;45.426;9.206;2023-08-06T13:22:31;1.30;;;0.70;;
32393;SDS011;18853;45.426;9.206;2023-08-06T13:24:57;1.05;;;0.60;;
32393;SDS011;18853;45.426;9.206;2023-08-06T13:27:22;0.98;;;0.60;;
32393;SDS011;18853;45.426;9.206;2023-08-06T13:29:48;1.90;;;0.52;;
32393;SDS011;18853;45.426;9.206;2023-08-06T13:32:13;1.05;;;0.50;;
32393;SDS011;18853;45.426;9.206;2023-08-06T13:34:39;1.17;;;0.60;;
32393;SDS011;18853;45.426;9.206;2023-08-06T13:37:05;2.05;;;0.50;;
32393;SDS011;18853;45.426;9.206;2023-08-06T13:39:30;1.58;;;0.50;;
32393;SDS011;18853;45.426;9.206;2023-08-06T13:41:56;1.75;;;0.77;;
32393;SDS011;18853;45.426;9.206;2023-08-06T13:44:22;0.93;;;0.70;;
32393;SDS011;18853;45.426;9.206;2023-08-06T13:46:47;1.10;;;0.55;;
32393;SDS011;18853;45.426;9.206;2023-08-06T13:49:13;1.23;;;0.88;;
32393;SDS011;18853;45.426;9.206;2023-08-06T13:51:38;0.98;;;0.52;;
32393;SDS011;18853;45.426;9.206;2023-08-06T13:54:04;1.55;;;0.80;;
32393;SDS011;18853;45.426;9.206;2023-08-06T13:56:30;2.17;;;0.98;;
32393;SDS011;18853;45.426;9.206;2023-08-06T13:58:57;1.13;;;0.57;;
32393;SDS011;18853;45.426;9.206;2023-08-06T14:01:22;1.20;;;0.40;;
32393;SDS011;18853;45.426;9.206;2023-08-06T14:03:48;0.80;;;0.30;;
32393;SDS011;18853;45.426;9.206;2023-08-06T14:06:14;0.63;;;0.30;;
32393;SDS011;18853;45.426;9.206;2023-08-06T14:08:39;1.23;;;0.30;;
32393;SDS011;18853;45.426;9.206;2023-08-06T14:11:05;0.60;;;0.40;;
32393;SDS011;18853;45.426;9.206;2023-08-06T14:13:31;0.77;;;0.43;;
32393;SDS011;18853;45.426;9.206;2023-08-06T14:15:57;0.90;;;0.28;;
32393;SDS011;18853;45.426;9.206;2023-08-06T14:18:22;0.88;;;0.32;;
32393;SDS011;18853;45.426;9.206;2023-08-06T14:20:48;5.63;;;0.80;;
32393;SDS011;18853;45.426;9.206;2023-08-06T14:23:14;0.70;;;0.20;;
32393;SDS011;18853;45.426;9.206;2023-08-06T14:25:39;1.05;;;0.40;;
32393;SDS011;18853;45.426;9.206;2023-08-06T14:28:05;1.63;;;0.28;;
32393;SDS011;18853;45.426;9.206;2023-08-06T14:30:31;1.50;;;0.30;;
32393;SDS011;18853;45.426;9.206;2023-08-06T14:32:58;0.32;;;0.20;;
32393;SDS011;18853;45.426;9.206;2023-08-06T14:35:25;1.48;;;0.20;;
32393;SDS011;18853;45.426;9.206;2023-08-06T14:37:51;0.57;;;0.20;;
32393;SDS011;18853;45.426;9.206;2023-08-06T14:40:16;1.02;;;0.38;;
32393;SDS011;18853;45.426;9.206;2023-08-06T14:42:42;0.50;;;0.13;;
32393;SDS011;18853;45.426;9.206;2023-08-06T14:45:08;2.83;;;0.40;;
32393;SDS011;18853;45.426;9.206;2023-08-06T14:47:34;1.10;;;0.30;;
32393;SDS011;18853;45.426;9.206;2023-08-06T14:50:00;1.35;;;0.38;;
32393;SDS011;18853;45.426;9.206;2023-08-06T14:52:26;0.73;;;0.30;;
32393;SDS011;18853;45.426;9.206;2023-08-06T14:54:51;0.85;;;0.20;;
32393;SDS011;18853;45.426;9.206;2023-08-06T14:57:20;1.27;;;0.20;;